首页
METAR-TAF:

METAR-TAF

机场 :

佐賀機場

佐賀, 日本

纬度: 33-09N, 经度: 130-18E, 海拔: 2米

当前天气观测

该预报发布于14分钟前的06:00 UTC
风速7节,风向西南
温度 32°C
湿度 63%
气压 1009 hPa
能见度10公里或以上
少量云层高于3000英尺
多云

METAR: RJFS 180600Z 23007KT 9999 FEW030 BKN/// 32/24 Q1009

时间: 15:14 (06:14 UTC)

预报

该预报发布于1小时和7分钟前的05:07 UTC
预报有效从18日的 06点(UTC)到 19日的 12点(UTC)
风速8节,风向西转西南
能見度: 9000
少量云层高于3000英尺
成为
从 18日的 14点(UTC)到 18日的 16点(UTC)
风速4节,风向北转东北
成为
从 19日的 00点(UTC)到 19日的 03点(UTC)
风速8节,风向西南

TAF: RJFS 180507Z 1806/1912 25008KT 9000 FEW030 BECMG 1814/1816 02004KT BECMG 1900/1903 23008KT

超过4000个机场的气象观测和天气预报(METAR&TAF报告)。

可查询的气象台以黄色和红色小点在地图上表示。

将鼠标移到小点上方,可查看气象台名称。

然后点击查看天气观测和预报。

如需切换地图:点击带黑十字的绿色按钮放大地图;点击带横线的绿色按钮缩小地图;或者点击绿色箭头查看邻近地区的地图。


METAR-TAF: